createdAt,value
2023-02-15T00:00:38.967Z,34.63
2023-02-15T00:03:05.462Z,34.53
2023-02-15T00:05:32.324Z,35.83
2023-02-15T00:07:58.739Z,42.75
2023-02-15T00:10:25.139Z,36.80
2023-02-15T00:12:51.525Z,37.95
2023-02-15T00:15:18.019Z,34.58
2023-02-15T00:17:44.450Z,32.78
2023-02-15T00:20:11.854Z,34.35
2023-02-15T00:22:38.271Z,35.42
2023-02-15T00:25:04.942Z,35.03
2023-02-15T00:27:31.355Z,34.08
2023-02-15T00:29:57.857Z,41.22
2023-02-15T00:32:24.270Z,40.47
2023-02-15T00:34:50.660Z,38.28
2023-02-15T00:37:17.129Z,37.75
2023-02-15T00:39:47.231Z,50.23
2023-02-15T00:42:13.626Z,46.67
2023-02-15T00:44:40.049Z,49.75
2023-02-15T00:47:06.543Z,47.70
2023-02-15T00:49:33.383Z,43.35
2023-02-15T00:51:59.808Z,46.83
2023-02-15T00:54:26.219Z,53.65
2023-02-15T00:56:52.627Z,66.18
2023-02-15T00:59:19.044Z,56.15
2023-02-15T01:01:47.548Z,55.10
2023-02-15T01:04:13.992Z,44.47
2023-02-15T01:06:40.432Z,41.30
2023-02-15T01:09:06.895Z,45.45
2023-02-15T01:11:33.321Z,44.72
2023-02-15T01:13:59.795Z,40.38
2023-02-15T01:16:28.573Z,38.67
2023-02-15T01:18:57.986Z,37.60
2023-02-15T01:21:26.119Z,35.20
2023-02-15T01:23:52.905Z,36.97
2023-02-15T01:26:19.300Z,41.97
2023-02-15T01:28:46.511Z,45.17
2023-02-15T01:31:15.772Z,37.90
2023-02-15T01:33:44.533Z,44.33
2023-02-15T01:36:11.294Z,44.03
2023-02-15T01:38:40.719Z,46.13
2023-02-15T01:41:25.480Z,45.17
2023-02-15T01:43:56.188Z,45.60
2023-02-15T01:46:32.296Z,54.90
2023-02-15T01:49:10.740Z,65.13
2023-02-15T01:51:38.825Z,65.28
2023-02-15T01:54:12.905Z,65.97
2023-02-15T01:56:41.863Z,69.72
2023-02-15T01:59:15.804Z,71.15
2023-02-15T02:01:42.327Z,66.93
2023-02-15T02:04:18.882Z,65.07
2023-02-15T02:06:49.563Z,67.43
2023-02-15T02:09:16.014Z,63.60
2023-02-15T02:11:45.817Z,61.67
2023-02-15T02:14:12.851Z,63.92
2023-02-15T02:16:53.226Z,59.15
2023-02-15T02:19:46.618Z,56.37
2023-02-15T02:22:50.434Z,60.70
2023-02-15T02:25:33.753Z,66.07
2023-02-15T02:28:36.657Z,65.25
2023-02-15T02:31:49.181Z,52.25
2023-02-15T02:34:32.649Z,52.17
2023-02-15T02:37:24.237Z,50.70
2023-02-15T02:40:04.721Z,47.13
2023-02-15T02:42:39.839Z,48.05
2023-02-15T02:45:07.829Z,47.08
2023-02-15T02:47:39.948Z,51.67
2023-02-15T02:50:10.778Z,48.75
2023-02-15T02:52:52.382Z,47.83
2023-02-15T02:55:30.961Z,40.25
2023-02-15T02:58:16.782Z,41.15
2023-02-15T03:00:49.368Z,44.85
2023-02-15T03:03:38.676Z,38.15
2023-02-15T03:06:11.109Z,41.90
2023-02-15T03:08:43.422Z,43.03
2023-02-15T03:11:10.034Z,45.50
2023-02-15T03:13:36.698Z,47.53
2023-02-15T03:16:26.357Z,40.70
2023-02-15T03:18:59.598Z,30.15
2023-02-15T03:21:58.593Z,33.13
2023-02-15T03:24:31.242Z,28.98
2023-02-15T03:26:58.105Z,29.95
2023-02-15T03:29:28.317Z,26.20
2023-02-15T03:31:58.877Z,29.40
2023-02-15T03:34:26.169Z,37.83
2023-02-15T03:37:17.372Z,44.08
2023-02-15T03:39:53.473Z,57.60
2023-02-15T03:42:32.459Z,85.53
2023-02-15T03:45:03.506Z,78.72
2023-02-15T03:50:27.796Z,72.57
2023-02-15T03:52:56.521Z,74.47
2023-02-15T03:55:23.121Z,68.70
2023-02-15T03:58:08.332Z,70.15
2023-02-15T04:00:57.089Z,69.80
2023-02-15T04:03:46.764Z,70.85
2023-02-15T04:06:13.139Z,68.82
2023-02-15T04:08:58.277Z,71.47
2023-02-15T04:11:24.707Z,68.35
2023-02-15T04:13:57.241Z,73.43
2023-02-15T04:16:24.760Z,76.95
2023-02-15T04:19:09.784Z,71.88
2023-02-15T04:21:54.825Z,67.45
2023-02-15T04:24:39.989Z,77.68
2023-02-15T04:27:06.790Z,64.15
2023-02-15T04:29:33.462Z,72.65
2023-02-15T04:32:02.131Z,63.15
2023-02-15T04:34:28.586Z,66.93
2023-02-15T04:36:54.986Z,63.53
2023-02-15T04:39:21.373Z,77.95
2023-02-15T04:41:48.677Z,72.50
2023-02-15T04:44:15.184Z,83.45
2023-02-15T04:46:41.597Z,80.93
2023-02-15T04:49:09.470Z,85.13
2023-02-15T04:51:35.887Z,77.80
2023-02-15T04:54:02.292Z,88.15
2023-02-15T04:56:30.875Z,105.47
2023-02-15T04:58:57.333Z,110.50
2023-02-15T05:01:23.772Z,101.38
2023-02-15T05:03:50.284Z,110.47
2023-02-15T05:06:16.719Z,106.90
2023-02-15T05:08:43.130Z,117.13
2023-02-15T05:11:09.614Z,103.72
2023-02-15T05:13:36.017Z,127.50
2023-02-15T05:16:02.819Z,126.78
2023-02-15T05:18:29.438Z,122.88
2023-02-15T05:20:55.873Z,125.75
2023-02-15T05:23:22.280Z,123.80
2023-02-15T05:26:08.175Z,124.60
2023-02-15T05:28:35.726Z,119.10
2023-02-15T05:31:12.718Z,130.98
2023-02-15T05:33:40.302Z,128.30
2023-02-15T05:36:07.614Z,133.65
2023-02-15T05:38:34.421Z,138.95
2023-02-15T05:41:00.939Z,142.02
2023-02-15T05:43:27.652Z,145.05
2023-02-15T05:45:55.728Z,143.43
2023-02-15T05:48:24.958Z,141.55
2023-02-15T05:51:13.849Z,151.57
2023-02-15T05:53:40.710Z,145.55
2023-02-15T05:56:09.013Z,142.75
2023-02-15T05:58:38.839Z,140.73
2023-02-15T06:01:23.901Z,183.70
2023-02-15T06:03:50.405Z,160.43
2023-02-15T06:06:17.014Z,118.47
2023-02-15T06:08:43.460Z,136.65
2023-02-15T06:11:10.244Z,183.30
2023-02-15T06:13:38.697Z,138.40
2023-02-15T06:16:06.615Z,168.93
2023-02-15T06:18:33.143Z,126.53
2023-02-15T06:20:59.571Z,167.13
2023-02-15T06:23:26.006Z,163.75
2023-02-15T06:25:52.547Z,179.52
2023-02-15T06:28:18.984Z,252.23
2023-02-15T06:30:45.415Z,193.57
2023-02-15T06:33:11.824Z,128.23
2023-02-15T06:35:38.241Z,125.82
2023-02-15T06:38:05.696Z,117.57
2023-02-15T06:40:32.090Z,144.95
2023-02-15T06:42:58.486Z,170.40
2023-02-15T06:45:24.923Z,126.78
2023-02-15T06:47:51.321Z,131.52
2023-02-15T06:50:17.771Z,141.10
2023-02-15T06:52:44.238Z,166.13
2023-02-15T06:55:10.627Z,161.00
2023-02-15T06:57:37.429Z,204.10
2023-02-15T07:00:05.854Z,208.95
2023-02-15T07:02:32.565Z,148.52
2023-02-15T07:04:59.046Z,144.73
2023-02-15T07:07:25.511Z,139.07
2023-02-15T07:09:52.191Z,143.30
2023-02-15T07:12:37.424Z,160.93
2023-02-15T07:15:06.899Z,129.82
2023-02-15T07:17:35.897Z,110.72
2023-02-15T07:20:05.829Z,134.05
2023-02-15T07:22:32.299Z,110.45
2023-02-15T07:24:58.751Z,136.93
2023-02-15T07:27:25.144Z,117.78
2023-02-15T07:29:51.582Z,108.10
2023-02-15T07:32:18.195Z,108.60
2023-02-15T07:34:44.625Z,120.70
2023-02-15T07:37:11.072Z,108.18
2023-02-15T07:39:37.481Z,111.25
2023-02-15T07:42:03.889Z,155.27
2023-02-15T07:44:31.114Z,101.88
2023-02-15T07:46:57.515Z,103.30
2023-02-15T07:49:24.159Z,96.80
2023-02-15T07:51:50.684Z,110.78
2023-02-15T07:54:17.089Z,109.15
2023-02-15T07:56:43.497Z,115.30
2023-02-15T07:59:10.185Z,101.13
2023-02-15T08:01:38.103Z,94.90
2023-02-15T08:04:06.994Z,103.72
2023-02-15T08:06:36.788Z,98.22
2023-02-15T08:09:08.604Z,100.00
2023-02-15T08:11:43.668Z,103.05
2023-02-15T08:14:15.504Z,108.82
2023-02-15T08:16:44.895Z,98.03
2023-02-15T08:19:12.564Z,105.38
2023-02-15T08:21:41.618Z,98.80
2023-02-15T08:24:09.501Z,103.88
2023-02-15T08:26:36.690Z,98.90
2023-02-15T08:29:04.106Z,93.20
2023-02-15T08:31:30.750Z,93.20
2023-02-15T08:33:58.242Z,103.13
2023-02-15T08:36:29.786Z,93.22
2023-02-15T08:38:59.263Z,99.55
2023-02-15T08:41:28.031Z,94.47
2023-02-15T08:43:56.265Z,100.32
2023-02-15T08:46:24.492Z,96.28
2023-02-15T08:48:51.411Z,99.70
2023-02-15T08:51:26.218Z,98.90
2023-02-15T08:53:55.148Z,100.15
2023-02-15T08:56:27.085Z,95.40
2023-02-15T08:58:54.298Z,107.72
2023-02-15T09:01:23.399Z,98.45
2023-02-15T09:03:54.306Z,92.40
2023-02-15T09:06:21.873Z,93.70
2023-02-15T09:08:48.385Z,100.93
2023-02-15T09:11:23.185Z,97.00
2023-02-15T09:13:53.071Z,101.88
2023-02-15T09:16:19.501Z,94.10
2023-02-15T09:18:46.277Z,96.75
2023-02-15T09:21:18.192Z,103.43
2023-02-15T09:23:45.879Z,101.95
2023-02-15T09:26:15.353Z,89.65
2023-02-15T09:28:42.216Z,92.40
2023-02-15T09:31:18.291Z,93.40
2023-02-15T09:33:46.895Z,99.43
2023-02-15T09:36:27.925Z,88.40
2023-02-15T09:39:00.000Z,92.15
2023-02-15T09:41:38.312Z,88.55
2023-02-15T09:44:23.174Z,92.30
2023-02-15T09:47:28.637Z,97.20
2023-02-15T09:50:19.989Z,93.57
2023-02-15T09:55:49.407Z,98.47
2023-02-15T09:58:38.000Z,96.17
2023-02-15T10:01:21.759Z,102.78
2023-02-15T10:04:19.336Z,96.57
2023-02-15T10:07:14.991Z,95.15
2023-02-15T10:10:08.570Z,89.78
2023-02-15T10:13:13.766Z,97.80
2023-02-15T10:15:54.252Z,85.28
2023-02-15T10:18:51.449Z,100.32
2023-02-15T10:21:41.332Z,94.32
2023-02-15T10:24:23.837Z,110.05
2023-02-15T10:26:50.313Z,97.90
2023-02-15T10:29:32.702Z,97.53
2023-02-15T10:32:24.424Z,98.45
2023-02-15T10:35:24.434Z,96.22
2023-02-15T10:38:06.671Z,100.18
2023-02-15T10:40:47.460Z,89.78
2023-02-15T10:43:19.840Z,95.78
2023-02-15T10:45:57.817Z,96.68
2023-02-15T10:48:58.577Z,89.63
2023-02-15T10:51:43.837Z,88.88
2023-02-15T10:54:49.218Z,97.75
2023-02-15T10:57:40.526Z,98.20
2023-02-15T11:03:01.903Z,92.90
2023-02-15T11:06:02.222Z,93.82
2023-02-15T11:08:32.445Z,91.82
2023-02-15T11:11:12.627Z,88.27
2023-02-15T11:13:48.173Z,68.18
2023-02-15T11:16:23.854Z,92.07
2023-02-15T11:19:11.898Z,93.35
2023-02-15T11:21:43.878Z,82.40
2023-02-15T11:24:19.184Z,87.60
2023-02-15T11:26:52.690Z,81.78
2023-02-15T11:29:41.644Z,70.75
2023-02-15T11:32:26.917Z,80.78
2023-02-15T11:35:15.981Z,79.45
2023-02-15T11:37:59.621Z,80.93
2023-02-15T11:40:36.329Z,83.05
2023-02-15T11:43:14.509Z,76.53
2023-02-15T11:45:43.547Z,74.47
2023-02-15T11:48:12.765Z,71.40
2023-02-15T11:50:39.796Z,74.28
2023-02-15T11:53:12.585Z,76.28
2023-02-15T11:55:39.652Z,71.50
2023-02-15T11:58:22.124Z,66.00
2023-02-15T12:00:53.330Z,69.47
2023-02-15T12:03:25.404Z,66.88
2023-02-15T12:05:57.276Z,70.28
2023-02-15T12:08:23.701Z,65.22
2023-02-15T12:11:01.623Z,67.55
2023-02-15T12:13:28.342Z,67.05
2023-02-15T12:15:58.375Z,58.47
2023-02-15T12:18:45.168Z,49.77
2023-02-15T12:21:29.111Z,61.17
2023-02-15T12:24:00.922Z,60.92
2023-02-15T12:26:33.108Z,58.45
2023-02-15T12:29:03.112Z,63.92
2023-02-15T12:31:37.116Z,53.17
2023-02-15T12:34:26.245Z,54.92
2023-02-15T12:36:58.892Z,54.13
2023-02-15T12:39:28.480Z,48.15
2023-02-15T12:41:54.865Z,59.25
2023-02-15T12:44:25.229Z,49.55
2023-02-15T12:47:04.946Z,51.55
2023-02-15T12:49:36.951Z,48.40
2023-02-15T12:52:21.042Z,50.63
2023-02-15T12:54:48.325Z,46.65
2023-02-15T12:57:27.594Z,46.72
2023-02-15T13:00:06.965Z,43.72
2023-02-15T13:02:43.788Z,46.63
2023-02-15T13:05:38.201Z,47.58
2023-02-15T13:08:17.579Z,43.45
2023-02-15T13:10:56.903Z,42.22
2023-02-15T13:13:27.207Z,42.70
2023-02-15T13:15:59.258Z,43.65
2023-02-15T13:18:37.800Z,41.95
2023-02-15T13:21:12.070Z,42.13
2023-02-15T13:23:43.159Z,38.72
2023-02-15T13:28:48.324Z,36.03
2023-02-15T13:31:18.357Z,38.38
2023-02-15T13:33:50.385Z,38.77
2023-02-15T13:36:25.720Z,37.88
2023-02-15T13:38:58.345Z,36.92
2023-02-15T13:41:36.640Z,35.00
2023-02-15T13:44:38.622Z,35.50
2023-02-15T13:47:18.148Z,32.60
2023-02-15T13:50:07.783Z,36.33
2023-02-15T13:52:57.429Z,32.95
2023-02-15T13:55:35.537Z,32.85
2023-02-15T13:58:39.376Z,32.22
2023-02-15T14:01:19.374Z,33.55
2023-02-15T14:04:11.401Z,31.63
2023-02-15T14:07:07.321Z,31.92
2023-02-15T14:09:48.797Z,34.13
2023-02-15T14:12:46.755Z,32.10
2023-02-15T14:15:13.107Z,29.77
2023-02-15T14:17:55.284Z,32.20
2023-02-15T14:20:40.336Z,29.23
2023-02-15T14:23:29.000Z,37.72
2023-02-15T14:26:02.851Z,32.53
2023-02-15T14:28:38.299Z,29.42
2023-02-15T14:31:08.138Z,31.30
2023-02-15T14:33:53.517Z,32.42
2023-02-15T14:36:20.936Z,34.50
2023-02-15T14:39:30.333Z,34.38
2023-02-15T14:42:02.909Z,34.90
2023-02-15T14:45:02.380Z,32.33
2023-02-15T14:47:37.684Z,29.70
2023-02-15T14:50:39.500Z,28.05
2023-02-15T14:53:27.575Z,29.95
2023-02-15T14:56:12.385Z,33.10
2023-02-15T14:58:39.139Z,29.75
2023-02-15T15:01:10.662Z,28.55
2023-02-15T15:03:44.116Z,26.98
2023-02-15T15:06:26.257Z,28.40
2023-02-15T15:08:56.642Z,29.33
2023-02-15T15:11:42.638Z,27.05
2023-02-15T15:14:11.302Z,33.60
2023-02-15T15:16:38.082Z,26.73
2023-02-15T15:19:07.245Z,27.45
2023-02-15T15:21:53.283Z,31.60
2023-02-15T15:24:38.007Z,26.45
2023-02-15T15:27:46.583Z,31.67
2023-02-15T15:30:15.763Z,31.63
2023-02-15T15:33:00.584Z,28.05
2023-02-15T15:35:44.907Z,25.80
2023-02-15T15:38:55.206Z,28.63
2023-02-15T15:41:49.597Z,27.67
2023-02-15T15:44:52.884Z,31.30
2023-02-15T15:47:41.294Z,27.08
2023-02-15T15:50:17.897Z,23.20
2023-02-15T15:52:52.412Z,25.17
2023-02-15T15:55:23.002Z,27.00
2023-02-15T15:57:55.985Z,26.15
2023-02-15T16:00:37.827Z,25.45
2023-02-15T16:03:05.289Z,26.27
2023-02-15T16:05:39.593Z,22.27
2023-02-15T16:08:06.497Z,29.95
2023-02-15T16:10:36.828Z,26.20
2023-02-15T16:13:03.367Z,24.02
2023-02-15T16:15:50.470Z,30.63
2023-02-15T16:18:18.921Z,31.65
2023-02-15T16:20:57.882Z,27.25
2023-02-15T16:23:36.243Z,31.23
2023-02-15T16:26:39.673Z,30.08
2023-02-15T16:29:26.713Z,27.23
2023-02-15T16:32:19.382Z,33.42
2023-02-15T16:34:56.825Z,33.92
2023-02-15T16:37:28.163Z,29.17
2023-02-15T16:39:56.062Z,32.22
2023-02-15T16:42:23.136Z,29.27
2023-02-15T16:44:55.002Z,31.05
2023-02-15T16:47:32.444Z,33.10
2023-02-15T16:50:02.929Z,31.90
2023-02-15T16:52:30.576Z,40.10
2023-02-15T16:55:00.827Z,31.90
2023-02-15T16:57:30.978Z,31.43
2023-02-15T17:00:04.169Z,28.13
2023-02-15T17:02:54.374Z,29.02
2023-02-15T17:05:20.889Z,31.55
2023-02-15T17:08:04.405Z,29.60
2023-02-15T17:10:32.845Z,28.50
2023-02-15T17:13:04.723Z,28.42
2023-02-15T17:15:38.478Z,29.63
2023-02-15T17:18:15.878Z,29.52
2023-02-15T17:20:44.485Z,27.73
2023-02-15T17:23:23.222Z,27.95
2023-02-15T17:25:49.978Z,29.38
2023-02-15T17:28:19.569Z,30.13
2023-02-15T17:30:47.319Z,30.85
2023-02-15T17:33:23.755Z,26.23
2023-02-15T17:36:05.445Z,25.52
2023-02-15T17:38:32.299Z,25.98
2023-02-15T17:40:59.197Z,23.58
2023-02-15T17:43:26.567Z,24.75
2023-02-15T17:45:53.555Z,29.30
2023-02-15T17:48:35.205Z,24.48
2023-02-15T17:51:03.062Z,24.02
2023-02-15T17:53:29.824Z,29.45
2023-02-15T17:55:56.241Z,30.17
2023-02-15T17:58:22.981Z,28.88
2023-02-15T18:01:11.036Z,34.05
2023-02-15T18:04:02.781Z,28.92
2023-02-15T18:06:48.374Z,31.40
2023-02-15T18:09:36.519Z,32.67
2023-02-15T18:12:15.444Z,33.13
2023-02-15T18:14:41.905Z,31.42
2023-02-15T18:17:12.239Z,30.38
2023-02-15T18:19:38.902Z,29.30
2023-02-15T18:22:11.387Z,29.92
2023-02-15T18:24:37.824Z,34.35
2023-02-15T18:27:05.274Z,28.88
2023-02-15T18:29:32.235Z,34.20
2023-02-15T18:32:00.157Z,30.20
2023-02-15T18:34:38.238Z,36.88
2023-02-15T18:37:07.244Z,36.17
2023-02-15T18:39:40.062Z,38.92
2023-02-15T18:42:20.536Z,34.25
2023-02-15T18:44:47.603Z,30.05
2023-02-15T18:47:14.010Z,40.30
2023-02-15T18:49:40.394Z,43.92
2023-02-15T18:52:14.429Z,38.25
2023-02-15T18:54:42.010Z,42.88
2023-02-15T18:57:15.830Z,43.10
2023-02-15T18:59:42.338Z,50.63
2023-02-15T19:02:17.258Z,49.45
2023-02-15T19:04:45.320Z,51.10
2023-02-15T19:07:17.780Z,49.70
2023-02-15T19:09:47.756Z,44.05
2023-02-15T19:12:14.198Z,46.80
2023-02-15T19:14:40.716Z,44.22
2023-02-15T19:17:15.260Z,44.45
2023-02-15T19:19:41.753Z,42.33
2023-02-15T19:22:30.367Z,50.80
2023-02-15T19:24:59.263Z,49.90
2023-02-15T19:27:28.615Z,46.50
2023-02-15T19:29:55.095Z,45.42
2023-02-15T19:32:21.605Z,45.92
2023-02-15T19:34:48.055Z,47.33
2023-02-15T19:37:36.974Z,45.55
2023-02-15T19:40:04.961Z,42.15
2023-02-15T19:42:32.475Z,42.22
2023-02-15T19:44:58.859Z,45.28
2023-02-15T19:47:27.840Z,40.85
2023-02-15T19:50:00.223Z,40.33
2023-02-15T19:52:26.639Z,48.22
2023-02-15T19:54:54.704Z,46.03
2023-02-15T19:57:21.569Z,47.65
2023-02-15T19:59:47.965Z,47.75
2023-02-15T20:02:15.733Z,43.47
2023-02-15T20:04:42.258Z,42.75
2023-02-15T20:07:28.292Z,34.40
2023-02-15T20:09:54.742Z,37.60
2023-02-15T20:12:24.365Z,42.17
2023-02-15T20:14:51.841Z,38.45
2023-02-15T20:17:18.733Z,42.92
2023-02-15T20:19:46.116Z,45.45
2023-02-15T20:22:24.980Z,42.80
2023-02-15T20:24:52.718Z,42.58
2023-02-15T20:27:19.935Z,40.45
2023-02-15T20:29:46.380Z,45.42
2023-02-15T20:32:13.020Z,48.15
2023-02-15T20:34:39.543Z,46.75
2023-02-15T20:37:06.314Z,49.58
2023-02-15T20:39:34.788Z,49.65
2023-02-15T20:42:01.197Z,51.67
2023-02-15T20:44:30.777Z,40.95
2023-02-15T20:46:59.133Z,54.95
2023-02-15T20:49:27.403Z,48.30
2023-02-15T20:51:56.139Z,45.53
2023-02-15T20:54:28.890Z,49.30
2023-02-15T20:56:55.380Z,43.85
2023-02-15T20:59:23.446Z,45.90
2023-02-15T21:01:51.546Z,59.85
2023-02-15T21:04:32.025Z,45.80
2023-02-15T21:06:59.792Z,35.33
2023-02-15T21:09:26.420Z,43.33
2023-02-15T21:11:55.485Z,38.47
2023-02-15T21:14:25.838Z,30.40
2023-02-15T21:16:53.084Z,36.05
2023-02-15T21:19:21.513Z,37.90
2023-02-15T21:21:50.045Z,38.92
2023-02-15T21:24:34.780Z,42.67
2023-02-15T21:27:03.545Z,46.53
2023-02-15T21:29:30.900Z,42.78
2023-02-15T21:32:01.156Z,41.85
2023-02-15T21:34:27.725Z,33.83
2023-02-15T21:36:54.563Z,43.67
2023-02-15T21:39:23.887Z,41.63
2023-02-15T21:42:11.204Z,45.08
2023-02-15T21:44:56.373Z,45.05
2023-02-15T21:47:47.125Z,47.55
2023-02-15T21:50:41.925Z,54.80
2023-02-15T21:53:12.298Z,44.85
2023-02-15T21:55:38.850Z,30.75
2023-02-15T21:58:06.267Z,45.28
2023-02-15T22:00:33.795Z,46.22
2023-02-15T22:03:01.074Z,51.67
2023-02-15T22:05:30.993Z,47.13
2023-02-15T22:07:57.753Z,47.03
2023-02-15T22:10:32.468Z,40.88
2023-02-15T22:13:03.293Z,45.83
2023-02-15T22:15:35.925Z,47.40
2023-02-15T22:18:02.648Z,46.83
2023-02-15T22:20:29.149Z,44.28
2023-02-15T22:22:55.555Z,51.28
2023-02-15T22:25:24.574Z,45.08
2023-02-15T22:27:52.863Z,53.92
2023-02-15T22:30:25.430Z,50.28
2023-02-15T22:32:52.934Z,59.38
2023-02-15T22:35:28.972Z,47.95
2023-02-15T22:37:55.389Z,52.38
2023-02-15T22:40:25.613Z,49.38
2023-02-15T22:42:53.521Z,48.33
2023-02-15T22:45:23.924Z,68.88
2023-02-15T22:47:53.441Z,75.85
2023-02-15T22:50:26.144Z,63.72
2023-02-15T22:52:53.033Z,92.32
2023-02-15T22:55:22.162Z,78.32
2023-02-15T22:57:51.562Z,82.88
2023-02-15T23:00:24.217Z,86.88
2023-02-15T23:02:50.814Z,75.60
2023-02-15T23:05:26.407Z,78.97
2023-02-15T23:07:53.168Z,81.53
2023-02-15T23:10:21.477Z,76.72
2023-02-15T23:13:09.719Z,71.72
2023-02-15T23:15:37.061Z,69.63
2023-02-15T23:18:17.098Z,66.78
2023-02-15T23:20:54.812Z,75.63
2023-02-15T23:23:29.484Z,79.53
2023-02-15T23:25:56.561Z,86.90
2023-02-15T23:28:41.008Z,85.05
2023-02-15T23:31:18.317Z,79.40
2023-02-15T23:33:45.021Z,87.95
2023-02-15T23:36:34.314Z,92.55
2023-02-15T23:39:30.924Z,92.03
2023-02-15T23:41:59.167Z,78.47
2023-02-15T23:44:25.718Z,86.18
2023-02-15T23:46:52.330Z,90.32
2023-02-15T23:49:19.939Z,82.10
2023-02-15T23:51:49.240Z,96.43
2023-02-15T23:54:17.377Z,96.97
2023-02-15T23:56:46.270Z,100.50
2023-02-15T23:59:17.787Z,96.75
